KMHL/MHL METAR and TAF weather

Enter ICAO airport designator
Station Type Date Time Source
KMHL METAR 2019/12/05 23:35 UTC NOAA

KMHL 052335Z AUTO 29004KT 10SM SCT100 11/03 A2990 RMK AO2 TSNO PWINO


Station Type Date Time Source
KMHL Decoded METAR 2019/12/05 23:35 UTC NOAA

Station name not available
Dec 05, 2019 - 06:35 PM EST / 2019.12.05 2335 UTC
Wind: from the WNW (290 degrees) at 5 MPH (4 KT):0
Visibility: 10 mile(s):0
Sky conditions: partly cloudy
Temperature: 51 F (11 C)
Dew Point: 37 F (3 C)
Relative Humidity: 57%
Pressure (altimeter): 29.9 in. Hg (1012 hPa)
ob: KMHL 052335Z AUTO 29004KT 10SM SCT100 11/03 A2990 RMK AO2 TSNO PWINO
cycle: 23

Station Type Date Time Source
KMHL TAF UTC NOAA

Error!

Example: see airport list